Time;durP1;ratioP1;P1;durP2;ratioP2;P2;SDS_P1;SDS_P2;PMS_P1;PMS_P2;Temp;Humidity;BMP_temperature;BMP_pressure;BME280_temperature;BME280_humidity;BME280_pressure;Samples;Min_cycle;Max_cycle;Signal;HPM_P1;HPM_P2
2022/12/06 00:04:04;;;;;;;13.57;6.40;;;;;;;3.43;100.00;101719.03;10417671;28;20065;-64
2022/12/06 00:09:07;;;;;;;6.40;5.40;;;;;;;3.43;100.00;101714.75;10417908;28;20056;-64
2022/12/06 00:14:11;;;;;;;9.07;6.50;;;;;;;3.43;100.00;101719.91;10417115;28;20057;-64
2022/12/06 00:19:17;;;;;;;16.67;6.85;;;;;;;3.46;100.00;101713.88;10417534;28;20042;-64
2022/12/06 00:24:21;;;;;;;13.02;7.07;;;;;;;3.48;100.00;101722.47;10417342;28;20065;-64
2022/12/06 00:29:24;;;;;;;13.43;7.10;;;;;;;3.48;100.00;101713.03;10414218;28;20076;-64
2022/12/06 00:34:28;;;;;;;9.20;5.90;;;;;;;3.50;100.00;101710.44;10416485;28;20412;-64
2022/12/06 00:39:29;;;;;;;9.40;6.45;;;;;;;3.50;100.00;101705.28;10416009;28;20057;-64
2022/12/06 00:44:31;;;;;;;11.93;6.65;;;;;;;3.53;100.00;101709.59;10415402;28;20498;-64
2022/12/06 00:49:34;;;;;;;12.68;8.02;;;;;;;3.50;100.00;101704.41;10416237;28;20052;-64
2022/12/06 00:54:36;;;;;;;11.85;7.40;;;;;;;3.52;100.00;101710.47;10415725;28;20049;-64
2022/12/06 00:59:38;;;;;;;14.77;7.45;;;;;;;3.52;100.00;101711.28;10412835;28;20076;-63
2022/12/06 01:04:41;;;;;;;16.85;7.45;;;;;;;3.53;100.00;101709.59;10414862;28;20520;-64
2022/12/06 01:09:43;;;;;;;10.32;6.90;;;;;;;3.50;100.00;101713.03;10414910;28;20511;-64
2022/12/06 01:14:45;;;;;;;10.48;7.25;;;;;;;3.50;100.00;101707.00;10415135;28;20528;-64
2022/12/06 01:19:49;;;;;;;11.02;5.72;;;;;;;3.52;100.00;101711.28;10414692;28;20056;-64
2022/12/06 01:24:51;;;;;;;8.93;6.82;;;;;;;3.51;100.00;101711.28;10414411;28;20421;-64
2022/12/06 01:29:53;;;;;;;11.97;7.53;;;;;;;3.50;100.00;101715.63;10412279;28;20080;-63
2022/12/06 01:34:56;;;;;;;13.02;6.38;;;;;;;3.51;100.00;101719.03;10414697;28;20368;-63
2022/12/06 01:39:57;;;;;;;8.35;5.70;;;;;;;3.48;100.00;101717.31;10413792;28;20103;-63
2022/12/06 01:45:00;;;;;;;11.90;6.63;;;;;;;3.49;100.00;101724.19;10414033;28;20567;-63
2022/12/06 01:50:12;;;;;;;9.13;6.05;;;;;;;3.49;100.00;101716.44;10414023;28;20045;-64
2022/12/06 01:55:16;;;;;;;8.23;5.78;;;;;;;3.49;100.00;101700.97;10413694;28;20060;-64
2022/12/06 02:00:19;;;;;;;15.23;6.38;;;;;;;3.48;100.00;101712.16;10411377;28;20111;-64
2022/12/06 02:05:22;;;;;;;7.03;5.32;;;;;;;3.50;100.00;101697.53;10413690;28;20119;-64
2022/12/06 02:10:24;;;;;;;7.97;5.50;;;;;;;3.52;100.00;101713.88;10413223;28;20045;-63
2022/12/06 02:15:41;;;;;;;8.95;5.10;;;;;;;3.53;100.00;101705.28;10413493;28;20099;-63
2022/12/06 02:20:53;;;;;;;13.45;6.43;;;;;;;3.51;100.00;101701.84;10412787;28;20064;-63
2022/12/06 02:26:19;;;;;;;;;;;;;;;3.53;100.00;101701.84;10410855;28;20074;-64
2022/12/06 02:31:28;;;;;;;7.10;5.40;;;;;;;3.55;100.00;101707.84;10411909;28;20331;-64
2022/12/06 02:36:45;;;;;;;11.73;6.50;;;;;;;3.52;100.00;101698.41;10412686;28;20111;-64
2022/12/06 02:41:56;;;;;;;10.65;5.72;;;;;;;3.55;100.00;101698.41;10412103;28;20056;-65
2022/12/06 02:47:04;;;;;;;7.95;5.60;;;;;;;3.55;100.00;101685.50;10411964;28;20567;-64
2022/12/06 02:52:06;;;;;;;14.48;6.32;;;;;;;3.51;100.00;101681.19;10411963;28;20072;-64
2022/12/06 02:57:07;;;;;;;8.80;4.72;;;;;;;3.50;100.00;101686.34;10409721;28;20099;-64
2022/12/06 03:02:11;;;;;;;9.33;5.67;;;;;;;3.51;100.00;101685.47;10411392;28;20053;-65
2022/12/06 03:07:39;;;;;;;9.40;5.43;;;;;;;3.49;100.00;101682.91;10411671;28;20368;-64
2022/12/06 03:12:56;;;;;;;9.88;5.18;;;;;;;3.45;100.00;101686.34;10411310;28;20046;-64
2022/12/06 03:18:07;;;;;;;7.55;4.95;;;;;;;3.45;100.00;101694.06;10411037;28;20470;-64
2022/12/06 03:23:16;;;;;;;8.83;5.03;;;;;;;3.45;100.00;101696.66;10411951;28;20049;-64
2022/12/06 03:28:21;;;;;;;12.95;6.55;;;;;;;3.42;100.00;101694.09;10408879;28;20059;-64
2022/12/06 03:33:29;;;;;;;13.23;5.65;;;;;;;3.44;100.00;101694.94;10410997;28;20084;-64
2022/12/06 03:38:37;;;;;;;8.25;5.60;;;;;;;3.45;100.00;101699.25;10410776;28;20086;-64
2022/12/06 03:43:38;;;;;;;10.57;5.53;;;;;;;3.44;100.00;101695.81;10410795;28;20124;-64
2022/12/06 03:48:46;;;;;;;13.80;5.60;;;;;;;3.44;100.00;101700.09;10411130;28;20061;-64
2022/12/06 03:53:52;;;;;;;16.88;5.75;;;;;;;3.44;100.00;101690.66;10410948;28;20125;-64
2022/12/06 03:58:54;;;;;;;16.17;5.30;;;;;;;3.45;100.00;101692.38;10407819;28;20070;-64
2022/12/06 04:03:57;;;;;;;14.73;6.55;;;;;;;3.47;100.00;101695.81;10414134;28;20307;-64
2022/12/06 04:14:15;;;;;;;17.48;5.30;;;;;;;3.45;100.00;101682.06;10417180;28;20501;-64
2022/12/06 04:19:19;;;;;;;10.05;4.95;;;;;;;3.45;100.00;101687.22;10417619;28;20115;-64
2022/12/06 04:24:21;;;;;;;15.30;6.20;;;;;;;3.47;100.00;101684.63;10416921;28;20045;-64
2022/12/06 04:40:02;;;;;;;13.65;6.95;;;;;;;3.51;100.00;101694.09;10416472;28;20052;-64
2022/12/06 04:45:06;;;;;;;9.85;5.72;;;;;;;3.52;100.00;101700.13;10416167;28;20440;-64
2022/12/06 04:50:09;;;;;;;20.05;6.55;;;;;;;3.53;100.00;101697.56;10416633;28;20548;-64
2022/12/06 04:55:11;;;;;;;17.90;5.80;;;;;;;3.53;100.00;101694.97;10415897;28;20050;-64
2022/12/06 05:00:14;;;;;;;18.43;6.13;;;;;;;3.52;100.00;101690.66;10413238;28;20141;-64
2022/12/06 05:05:17;;;;;;;29.25;6.97;;;;;;;3.54;100.00;101691.53;10416015;28;20347;-64
2022/12/06 05:10:19;;;;;;;17.02;7.63;;;;;;;3.54;100.00;101696.69;10415098;28;20536;-64
2022/12/06 05:15:21;;;;;;;15.52;7.32;;;;;;;3.53;100.00;101692.41;10414366;28;20049;-64
2022/12/06 05:20:24;;;;;;;25.95;7.57;;;;;;;3.54;100.00;101681.19;10414672;28;20163;-64
2022/12/06 05:25:26;;;;;;;14.18;6.60;;;;;;;3.54;100.00;101685.50;10414051;28;20103;-63
2022/12/06 05:30:27;;;;;;;14.27;5.83;;;;;;;3.51;100.00;101681.19;10413746;28;20510;-64
2022/12/06 05:35:30;;;;;;;17.17;6.65;;;;;;;3.49;100.00;101682.91;10414328;28;20797;-64
2022/12/06 05:40:33;;;;;;;12.35;6.32;;;;;;;3.45;100.00;101676.00;10414344;28;20090;-64
2022/12/06 05:45:36;;;;;;;12.07;5.70;;;;;;;3.43;100.00;101676.03;10414340;28;20539;-64
2022/12/06 05:50:40;;;;;;;14.85;5.78;;;;;;;3.42;100.00;101694.09;10414082;28;20075;-64
2022/12/06 05:55:43;;;;;;;14.02;6.45;;;;;;;3.38;100.00;101679.47;10411335;28;20122;-65
2022/12/06 06:00:47;;;;;;;17.40;6.00;;;;;;;3.38;100.00;101684.63;10412952;28;20115;-65
2022/12/06 06:05:57;;;;;;;17.38;5.90;;;;;;;3.35;100.00;101693.22;10413055;28;20489;-64
2022/12/06 06:10:59;;;;;;;14.02;5.80;;;;;;;3.33;100.00;101677.75;10413286;28;20130;-64
2022/12/06 06:16:01;;;;;;;16.20;6.68;;;;;;;3.33;100.00;101685.50;10412719;28;20059;-64
2022/12/06 06:21:05;;;;;;;19.67;6.93;;;;;;;3.31;100.00;101687.19;10412857;28;20059;-64
2022/12/06 06:26:08;;;;;;;10.63;6.20;;;;;;;3.29;100.00;101691.47;10410031;28;20314;-64
2022/12/06 06:31:10;;;;;;;12.35;5.57;;;;;;;3.27;100.00;101688.03;10412300;28;20080;-64
2022/12/06 06:36:13;;;;;;;15.00;5.78;;;;;;;3.26;100.00;101683.75;10412062;28;20524;-64
2022/12/06 06:41:16;;;;;;;8.10;5.53;;;;;;;3.24;100.00;101680.28;10412359;28;20470;-64
2022/12/06 06:46:18;;;;;;;21.23;4.90;;;;;;;3.20;100.00;101686.31;10412286;28;20423;-63
2022/12/06 06:51:21;;;;;;;6.88;4.70;;;;;;;3.18;100.00;101678.56;10411779;28;20045;-63
2022/12/06 06:56:23;;;;;;;14.98;5.00;;;;;;;3.11;100.00;101675.97;10409122;28;20577;-64
2022/12/06 07:01:26;;;;;;;15.80;5.10;;;;;;;3.02;100.00;101674.22;10411624;28;20564;-64
2022/12/06 07:06:29;;;;;;;12.23;4.93;;;;;;;2.94;100.00;101674.19;10412035;28;20057;-64
2022/12/06 07:11:32;;;;;;;8.48;4.45;;;;;;;2.84;100.00;101683.63;10410701;28;20072;-64
2022/12/06 07:16:34;;;;;;;8.88;5.07;;;;;;;2.86;100.00;101686.22;10409939;28;20076;-64
2022/12/06 07:21:37;;;;;;;10.98;4.65;;;;;;;2.80;100.00;101687.91;10410480;28;20111;-64
2022/12/06 07:26:38;;;;;;;22.48;5.32;;;;;;;2.75;100.00;101684.47;10407639;28;20471;-64
2022/12/06 07:31:41;;;;;;;5.60;4.07;;;;;;;2.66;100.00;101684.41;10409611;28;20133;-64
2022/12/06 07:36:44;;;;;;;11.07;4.43;;;;;;;2.68;100.00;101693.91;10410203;28;20113;-64
2022/12/06 07:47:05;;;;;;;6.40;4.65;;;;;;;2.83;100.00;101695.66;10417511;28;20395;-64
2022/12/06 07:52:08;;;;;;;19.43;5.97;;;;;;;2.87;100.00;101693.94;10416874;28;20081;-63
2022/12/06 07:57:10;;;;;;;12.35;5.70;;;;;;;2.90;100.00;101703.41;10414662;28;20342;-64
2022/12/06 08:02:19;;;;;;;6.85;4.60;;;;;;;2.93;100.00;101711.16;10416476;28;20151;-63
2022/12/06 08:07:23;;;;;;;13.38;5.43;;;;;;;2.96;100.00;101714.63;10417129;28;20127;-64
2022/12/06 08:12:25;;;;;;;8.07;4.38;;;;;;;2.99;100.00;101712.91;10416210;28;20045;-63
2022/12/06 08:17:29;;;;;;;11.20;4.82;;;;;;;3.02;100.00;101710.34;10415833;28;20120;-63
2022/12/06 08:22:34;;;;;;;7.50;5.07;;;;;;;3.05;100.00;101716.34;10415726;28;20066;-64
2022/12/06 08:27:35;;;;;;;16.83;5.40;;;;;;;3.04;100.00;101717.22;10414785;28;20462;-64
2022/12/06 08:32:37;;;;;;;16.60;5.73;;;;;;;3.12;100.00;101706.06;10417304;28;20103;-64
2022/12/06 08:37:40;;;;;;;14.20;4.47;;;;;;;3.09;100.00;101707.78;10409963;28;20864;-64
2022/12/06 08:42:44;;;;;;;13.63;5.20;;;;;;;3.22;100.00;101710.41;10416473;28;20493;-64
2022/12/06 08:47:46;;;;;;;10.77;5.28;;;;;;;3.24;100.00;101711.25;10415274;28;20099;-65
2022/12/06 08:52:49;;;;;;;5.85;4.18;;;;;;;3.14;100.00;101719.81;10416072;28;20133;-65
2022/12/06 08:57:51;;;;;;;6.57;3.95;;;;;;;2.99;100.00;101723.22;10413370;28;20084;-65
2022/12/06 09:02:52;;;;;;;9.95;4.43;;;;;;;2.94;100.00;101725.78;10415661;28;20112;-64
2022/12/06 09:07:55;;;;;;;8.07;3.87;;;;;;;2.85;100.00;101725.75;10415628;28;20079;-64
2022/12/06 09:12:58;;;;;;;6.88;4.25;;;;;;;2.73;100.00;101731.72;10415770;28;20072;-64
2022/12/06 09:18:00;;;;;;;8.35;5.30;;;;;;;2.77;100.00;101729.16;10413803;28;20099;-65
2022/12/06 09:23:03;;;;;;;13.38;5.63;;;;;;;2.93;100.00;101734.38;10414603;28;20061;-65
2022/12/06 09:28:05;;;;;;;19.58;5.57;;;;;;;3.00;100.00;101735.25;10411738;28;20135;-64
2022/12/06 09:33:07;;;;;;;10.15;5.15;;;;;;;3.05;100.00;101739.56;10414429;28;20493;-65
2022/12/06 09:38:10;;;;;;;17.45;6.15;;;;;;;3.19;100.00;101733.63;10407775;28;20065;-64
2022/12/06 09:43:35;;;;;;;20.20;6.40;;;;;;;3.31;100.00;101736.22;10414261;28;20063;-64
2022/12/06 09:49:27;;;;;;;15.43;6.82;;;;;;;4.77;100.00;101744.75;10413993;28;20112;-64
2022/12/06 09:54:52;;;;;;;15.48;8.10;;;;;;;4.66;100.00;101739.63;10366567;28;20049;-64
2022/12/06 10:00:04;;;;;;;8.27;5.57;;;;;;;5.88;100.00;101749.25;10410207;28;20114;-64
2022/12/06 10:05:30;;;;;;;10.40;5.22;;;;;;;5.00;100.00;101736.03;10413404;28;20064;-63
2022/12/06 10:10:51;;;;;;;6.80;4.72;;;;;;;4.98;100.00;101733.44;10412797;28;20059;-63
2022/12/06 10:16:08;;;;;;;5.33;3.10;;;;;;;4.90;100.00;101736.06;10412863;28;20065;-63
2022/12/06 10:21:26;;;;;;;4.13;3.40;;;;;;;6.49;100.00;101726.28;10410594;28;20296;-63
2022/12/06 10:26:43;;;;;;;6.10;3.60;;;;;;;6.04;100.00;101721.53;10410540;28;20061;-63
2022/12/06 10:31:56;;;;;;;3.88;3.22;;;;;;;6.61;100.00;101720.09;10411780;28;20045;-63
2022/12/06 10:37:12;;;;;;;6.18;3.67;;;;;;;5.95;100.00;101719.00;10411035;28;20050;-64
2022/12/06 10:42:31;;;;;;;6.45;3.72;;;;;;;5.12;100.00;101720.44;10408394;28;20061;-63
2022/12/06 10:47:42;;;;;;;8.35;3.90;;;;;;;4.19;100.00;101728.50;10412295;28;20071;-63
2022/12/06 10:52:51;;;;;;;6.43;4.37;;;;;;;5.41;100.00;101721.97;10410355;28;20405;-63
2022/12/06 10:58:15;;;;;;;5.25;4.15;;;;;;;5.86;100.00;101723.41;10409045;28;20121;-63
2022/12/06 11:03:23;;;;;;;5.53;3.33;;;;;;;6.72;100.00;101729.47;10410358;28;20065;-63
2022/12/06 11:08:31;;;;;;;3.25;2.88;;;;;;;7.00;100.00;101721.34;10411113;28;20130;-63
2022/12/06 11:13:42;;;;;;;4.72;3.08;;;;;;;7.94;100.00;101721.66;10416210;28;20080;-63
2022/12/06 11:18:47;;;;;;;3.83;3.08;;;;;;;7.68;100.00;101722.97;10419442;28;20459;-62
2022/12/06 11:23:59;;;;;;;3.08;2.78;;;;;;;7.09;100.00;101721.22;10420193;28;20106;-63
2022/12/06 11:29:09;;;;;;;3.90;2.42;;;;;;;7.56;100.00;101718.81;10417328;28;20045;-62
2022/12/06 11:34:20;;;;;;;5.00;2.78;;;;;;;7.40;100.00;101719.91;10419008;28;20041;-63
2022/12/06 11:39:23;;;;;;;3.72;2.25;;;;;;;5.66;100.00;101716.66;10419276;28;20053;-64
2022/12/06 11:44:35;;;;;;;4.20;3.20;;;;;;;5.45;100.00;101701.25;10418953;28;20053;-62
2022/12/06 11:49:43;;;;;;;3.17;2.65;;;;;;;5.60;100.00;101701.16;10419116;28;20353;-62
2022/12/06 11:54:53;;;;;;;3.58;2.33;;;;;;;5.62;100.00;101689.06;10416667;28;20053;-62
2022/12/06 12:00:15;;;;;;;3.22;2.30;;;;;;;5.91;100.00;101680.16;10416036;28;20069;-62
2022/12/06 12:05:23;;;;;;;2.92;2.38;;;;;;;5.58;100.00;101676.97;10418025;28;20037;-63
2022/12/06 12:10:34;;;;;;;4.68;2.47;;;;;;;5.38;100.00;101677.16;10417778;28;20049;-63
2022/12/06 12:15:40;;;;;;;2.47;2.17;;;;;;;5.46;100.00;101666.72;10417365;28;20080;-63
2022/12/06 12:20:46;;;;;;;2.03;1.92;;;;;;;5.66;100.00;101664.84;10417078;28;20391;-63
2022/12/06 12:26:02;;;;;;;5.50;2.13;;;;;;;5.34;100.00;101668.53;10414556;28;20071;-63
2022/12/06 12:31:18;;;;;;;2.53;1.92;;;;;;;5.35;100.00;101659.91;10417220;28;20094;-64
2022/12/06 12:36:26;;;;;;;2.05;1.85;;;;;;;5.35;100.00;101649.56;10416600;28;20505;-65
2022/12/06 12:41:38;;;;;;;6.38;2.20;;;;;;;5.35;100.00;101654.75;10416193;28;20114;-64
2022/12/06 12:46:44;;;;;;;3.25;2.40;;;;;;;6.13;100.00;101659.22;10416219;28;20551;-64
2022/12/06 12:51:46;;;;;;;2.80;2.15;;;;;;;7.09;96.74;101651.16;10416603;28;20053;-64
2022/12/06 12:56:48;;;;;;;4.38;1.98;;;;;;;7.66;97.89;101645.94;10414068;28;20060;-64
2022/12/06 13:01:56;;;;;;;2.20;2.00;;;;;;;8.59;97.06;101649.38;10415755;28;20057;-64
2022/12/06 13:07:03;;;;;;;2.38;1.88;;;;;;;7.71;93.69;101647.56;10415732;28;20103;-64
2022/12/06 13:12:12;;;;;;;3.03;1.90;;;;;;;6.86;96.74;101643.66;10415553;28;20049;-64
2022/12/06 13:17:16;;;;;;;3.20;1.92;;;;;;;7.41;91.76;101642.00;10414736;28;20574;-63
2022/12/06 13:22:25;;;;;;;4.80;2.30;;;;;;;8.67;92.53;101631.00;10411693;28;20485;-64
2022/12/06 13:27:32;;;;;;;2.28;2.08;;;;;;;9.43;91.11;101641.41;10408970;28;20069;-64
2022/12/06 13:32:43;;;;;;;3.50;2.13;;;;;;;7.14;90.87;101638.94;10414594;28;20567;-63
2022/12/06 13:37:52;;;;;;;2.15;1.95;;;;;;;6.52;97.96;101634.59;10413700;28;20103;-63
2022/12/06 13:42:55;;;;;;;2.38;1.42;;;;;;;6.20;100.00;101628.06;10414346;28;20099;-63
2022/12/06 13:47:58;;;;;;;4.38;1.70;;;;;;;5.91;100.00;101633.53;10414310;28;20049;-63
2022/12/06 13:53:03;;;;;;;3.08;1.67;;;;;;;5.66;98.04;101633.78;10414407;28;20139;-64
2022/12/06 13:58:50;;;;;;;2.08;1.60;;;;;;;5.61;98.61;101609.63;10411658;28;20045;-64
2022/12/06 14:03:56;;;;;;;2.53;2.00;;;;;;;5.63;100.00;101618.25;10413405;28;20195;-62
2022/12/06 14:08:59;;;;;;;3.00;1.98;;;;;;;5.56;100.00;101611.41;10413300;28;20053;-63
2022/12/06 14:14:07;;;;;;;2.20;1.85;;;;;;;5.48;98.11;101619.22;10413481;28;20049;-63
2022/12/06 14:19:19;;;;;;;2.42;2.13;;;;;;;5.46;98.82;101615.81;10412712;28;20046;-64
2022/12/06 14:24:31;;;;;;;6.20;2.00;;;;;;;5.50;100.00;101616.63;10406345;28;20405;-63
2022/12/06 14:29:34;;;;;;;3.38;1.83;;;;;;;5.49;100.00;101615.78;10369223;28;20042;-64
2022/12/06 14:34:37;;;;;;;3.15;2.13;;;;;;;5.38;100.00;101608.09;10371631;28;20049;-64
2022/12/06 14:39:39;;;;;;;5.68;2.58;;;;;;;5.37;100.00;101603.78;10371472;28;20067;-63
2022/12/06 14:44:47;;;;;;;3.33;2.97;;;;;;;5.33;100.00;101604.69;10371432;28;20088;-63
2022/12/06 14:55:18;;;;;;;4.32;3.60;;;;;;;5.23;100.00;101592.69;10371105;28;20068;-64
2022/12/06 15:00:24;;;;;;;4.40;3.83;;;;;;;5.27;100.00;101591.81;10368459;28;20088;-63
2022/12/06 15:05:35;;;;;;;3.45;2.90;;;;;;;5.15;100.00;101591.03;10371502;28;20074;-63
2022/12/06 15:10:36;;;;;;;5.90;2.72;;;;;;;5.12;100.00;101591.06;10371029;28;20061;-63
2022/12/06 15:15:42;;;;;;;3.08;2.20;;;;;;;5.07;100.00;101587.66;10370385;28;20134;-63
2022/12/06 15:20:45;;;;;;;4.85;2.40;;;;;;;5.05;100.00;101588.50;10371524;28;20070;-63
2022/12/06 15:25:47;;;;;;;8.18;2.60;;;;;;;5.02;100.00;101581.63;10369279;28;20516;-63
2022/12/06 15:30:49;;;;;;;5.20;3.10;;;;;;;4.98;100.00;101588.56;10370868;28;20513;-63
2022/12/06 15:35:54;;;;;;;4.90;3.13;;;;;;;4.95;100.00;101591.19;10370307;28;20072;-64
2022/12/06 15:40:55;;;;;;;9.65;3.58;;;;;;;4.93;100.00;101584.31;10370413;28;20056;-64
2022/12/06 15:46:00;;;;;;;3.75;3.17;;;;;;;4.88;100.00;101587.78;10369982;28;20061;-64
2022/12/06 15:51:05;;;;;;;8.48;2.90;;;;;;;4.80;100.00;101588.69;10387339;28;20170;-64
2022/12/06 15:56:13;;;;;;;10.75;4.57;;;;;;;4.75;100.00;101586.13;10408411;28;20045;-63
2022/12/06 16:01:18;;;;;;;5.10;3.45;;;;;;;4.73;100.00;101590.47;10413368;28;20111;-63
2022/12/06 16:06:25;;;;;;;5.47;3.08;;;;;;;4.72;100.00;101588.75;10417830;28;20060;-64
2022/12/06 16:11:27;;;;;;;3.95;3.42;;;;;;;4.71;100.00;101589.59;10417021;28;20046;-64
2022/12/06 16:16:29;;;;;;;5.53;3.47;;;;;;;4.71;100.00;101585.28;10416939;28;20718;-63
2022/12/06 16:21:36;;;;;;;5.85;3.42;;;;;;;4.70;100.00;101598.22;10417585;28;20065;-63
2022/12/06 16:26:43;;;;;;;5.57;3.42;;;;;;;4.58;100.00;101584.50;10414431;28;20493;-63
2022/12/06 16:31:45;;;;;;;6.13;2.90;;;;;;;4.51;100.00;101580.22;10417205;28;20056;-63
2022/12/06 16:36:59;;;;;;;10.95;5.05;;;;;;;4.41;100.00;101576.00;10416539;28;20063;-63
2022/12/06 16:42:03;;;;;;;9.90;3.70;;;;;;;4.40;100.00;101579.41;10415748;28;20413;-63
2022/12/06 16:47:07;;;;;;;4.78;2.97;;;;;;;4.42;100.00;101577.69;10415642;28;20187;-64
2022/12/06 16:52:10;;;;;;;6.55;3.20;;;;;;;4.38;100.00;101566.53;10415093;28;20057;-63
2022/12/06 16:57:14;;;;;;;6.20;3.58;;;;;;;4.36;100.00;101558.78;10412201;28;20136;-64
2022/12/06 17:02:26;;;;;;;5.45;3.15;;;;;;;4.33;100.00;101557.91;10414141;28;20510;-64
2022/12/06 17:07:29;;;;;;;3.80;3.05;;;;;;;4.29;100.00;101561.38;10414170;28;20511;-64
2022/12/06 17:12:31;;;;;;;6.63;2.75;;;;;;;4.23;100.00;101552.81;10414224;28;20079;-64
2022/12/06 17:17:33;;;;;;;3.63;3.08;;;;;;;4.25;100.00;101555.38;10413765;28;20072;-63
2022/12/06 17:22:36;;;;;;;7.50;4.57;;;;;;;4.25;100.00;101555.38;10413256;28;20111;-64
2022/12/06 17:27:39;;;;;;;6.30;3.53;;;;;;;4.26;100.00;101546.75;10411502;28;20650;-65
2022/12/06 17:32:41;;;;;;;8.15;5.00;;;;;;;4.23;100.00;101549.34;10413134;28;20041;-65
2022/12/06 17:37:44;;;;;;;9.60;4.65;;;;;;;4.25;100.00;101551.06;10412697;28;20057;-64
2022/12/06 17:43:01;;;;;;;5.72;3.40;;;;;;;4.23;100.00;101557.09;10412513;28;20050;-64
2022/12/06 17:48:02;;;;;;;8.20;3.65;;;;;;;4.19;100.00;101550.22;10412096;28;20422;-64
2022/12/06 17:53:06;;;;;;;5.07;3.20;;;;;;;4.10;100.00;101552.00;10412320;28;20476;-64
2022/12/06 17:58:07;;;;;;;6.13;3.80;;;;;;;4.01;100.00;101546.00;10409562;28;20147;-64
2022/12/06 18:03:09;;;;;;;9.30;3.28;;;;;;;3.99;100.00;101543.41;10412063;28;20115;-65
2022/12/06 18:08:12;;;;;;;6.07;2.72;;;;;;;3.96;100.00;101543.41;10413044;28;20066;-65
2022/12/06 18:13:15;;;;;;;5.50;3.83;;;;;;;3.97;100.00;101540.00;10414007;28;20072;-64
2022/12/06 18:18:17;;;;;;;6.78;3.63;;;;;;;3.97;100.00;101535.66;10412356;28;20592;-64
2022/12/06 18:23:21;;;;;;;8.30;3.92;;;;;;;3.97;100.00;101540.00;10406596;28;20580;-64
2022/12/06 18:28:23;;;;;;;7.68;4.40;;;;;;;3.98;100.00;101541.72;10408633;28;20045;-64
2022/12/06 18:33:24;;;;;;;6.82;4.18;;;;;;;3.95;100.00;101524.50;10411419;28;20079;-65
2022/12/06 18:38:28;;;;;;;10.13;4.22;;;;;;;3.93;100.00;101538.28;10412834;28;20057;-64
2022/12/06 18:43:32;;;;;;;5.03;3.75;;;;;;;3.91;100.00;101537.41;10411551;28;20056;-64
2022/12/06 18:48:38;;;;;;;7.60;5.28;;;;;;;3.85;100.00;101534.00;10412105;28;20064;-65
2022/12/06 18:53:44;;;;;;;6.40;3.67;;;;;;;3.82;100.00;101528.84;10411953;28;20076;-64
2022/12/06 18:58:46;;;;;;;8.50;4.78;;;;;;;3.82;100.00;101530.56;10409674;28;20544;-64
2022/12/06 19:03:49;;;;;;;5.80;4.25;;;;;;;3.80;100.00;101533.13;10412400;28;20058;-64
2022/12/06 19:08:55;;;;;;;14.13;5.05;;;;;;;3.77;100.00;101519.38;10411329;28;20133;-64
2022/12/06 19:13:59;;;;;;;11.23;5.03;;;;;;;3.71;100.00;101525.44;10411220;28;20115;-64
2022/12/06 19:19:04;;;;;;;7.72;6.13;;;;;;;3.68;100.00;101530.59;10410401;28;20049;-71
2022/12/06 19:24:07;;;;;;;14.32;6.85;;;;;;;3.60;100.00;101526.31;10410593;28;20056;-72
2022/12/06 19:29:09;;;;;;;11.35;5.93;;;;;;;3.54;100.00;101521.19;10407288;28;20153;-73
2022/12/06 19:34:15;;;;;;;9.07;6.03;;;;;;;3.59;100.00;101523.72;10412313;28;20164;-71
2022/12/06 19:39:20;;;;;;;12.60;6.55;;;;;;;3.65;100.00;101528.00;10417265;28;20152;-72
2022/12/06 19:44:21;;;;;;;9.93;7.10;;;;;;;3.62;100.00;101528.03;10417696;28;20115;-72
2022/12/06 19:49:25;;;;;;;7.13;6.40;;;;;;;3.60;100.00;101528.03;10417321;28;20045;-72
2022/12/06 19:54:31;;;;;;;7.00;6.05;;;;;;;3.56;100.00;101524.59;10416945;28;20080;-64
2022/12/06 19:59:38;;;;;;;7.15;5.88;;;;;;;3.56;100.00;101531.50;10414021;28;20075;-65
2022/12/06 20:04:42;;;;;;;9.30;5.53;;;;;;;3.50;100.00;101537.53;10417066;28;20158;-65
2022/12/06 20:09:45;;;;;;;10.60;5.65;;;;;;;3.43;100.00;101539.28;10416187;28;20057;-64
2022/12/06 20:14:49;;;;;;;9.02;6.18;;;;;;;3.34;100.00;101534.97;10416277;28;20046;-64
2022/12/06 20:19:51;;;;;;;10.55;6.53;;;;;;;3.23;100.00;101531.53;10416003;28;20446;-64
2022/12/06 20:24:55;;;;;;;10.13;6.45;;;;;;;3.14;100.00;101532.38;10416150;28;20059;-63
2022/12/06 20:29:57;;;;;;;10.55;7.68;;;;;;;3.18;100.00;101536.69;10413307;28;20062;-65
2022/12/06 20:34:58;;;;;;;8.50;6.53;;;;;;;3.21;100.00;101530.66;10415564;28;20057;-72
2022/12/06 20:40:02;;;;;;;14.00;8.20;;;;;;;3.24;100.00;101535.81;10415248;28;20720;-71
2022/12/06 20:45:04;;;;;;;14.27;8.38;;;;;;;3.30;100.00;101524.66;10415180;28;20368;-64
2022/12/06 20:50:07;;;;;;;17.13;10.93;;;;;;;3.32;100.00;101525.50;10415284;28;20056;-64
2022/12/06 20:55:12;;;;;;;13.90;8.32;;;;;;;3.31;100.00;101528.94;10414715;28;20107;-63
2022/12/06 21:00:14;;;;;;;14.10;8.50;;;;;;;3.30;100.00;101530.69;10412186;28;20088;-64
2022/12/06 21:05:18;;;;;;;10.35;7.70;;;;;;;3.28;100.00;101528.97;10414511;28;20099;-64
2022/12/06 21:10:21;;;;;;;21.67;9.10;;;;;;;3.26;100.00;101528.97;10414675;28;20110;-64
2022/12/06 21:15:22;;;;;;;14.77;8.70;;;;;;;3.27;100.00;101522.94;10414306;28;20073;-64
2022/12/06 21:20:24;;;;;;;15.63;9.63;;;;;;;3.27;100.00;101522.94;10413978;28;20063;-64
2022/12/06 21:25:27;;;;;;;12.65;9.27;;;;;;;3.28;100.00;101523.81;10413920;28;20296;-64
2022/12/06 21:30:29;;;;;;;9.68;7.15;;;;;;;3.25;100.00;101522.06;10412752;28;20348;-66
2022/12/06 21:35:31;;;;;;;19.98;7.82;;;;;;;3.28;100.00;101519.47;10414501;28;20080;-65
2022/12/06 21:40:35;;;;;;;14.10;9.45;;;;;;;3.29;100.00;101515.19;10414383;28;20560;-65
2022/12/06 21:45:38;;;;;;;11.70;8.52;;;;;;;3.27;100.00;101502.28;10413822;28;20555;-66
2022/12/06 21:50:40;;;;;;;11.18;7.97;;;;;;;3.18;100.00;101507.47;10414662;28;20087;-63
2022/12/06 21:55:43;;;;;;;15.45;10.50;;;;;;;3.08;100.00;101519.50;10412258;28;20080;-64
2022/12/06 22:00:45;;;;;;;9.82;7.97;;;;;;;2.98;100.00;101521.22;10412538;28;20547;-63
2022/12/06 22:05:46;;;;;;;11.37;7.60;;;;;;;2.87;100.00;101523.78;10413319;28;20456;-64
2022/12/06 22:10:51;;;;;;;10.23;7.28;;;;;;;2.84;100.00;101528.94;10413039;28;20307;-65
2022/12/06 22:15:53;;;;;;;20.33;10.05;;;;;;;2.86;100.00;101526.34;10413039;28;20525;-64
2022/12/06 22:21:00;;;;;;;10.63;8.47;;;;;;;2.89;100.00;101521.22;10413503;28;20551;-64
2022/12/06 22:26:08;;;;;;;11.77;7.93;;;;;;;2.83;100.00;101530.66;10410130;28;20319;-63
2022/12/06 22:31:14;;;;;;;15.70;8.63;;;;;;;2.79;100.00;101526.38;10412845;28;20107;-63
2022/12/06 22:36:18;;;;;;;16.35;9.52;;;;;;;2.79;100.00;101521.22;10412362;28;20493;-63
2022/12/06 22:41:22;;;;;;;17.80;8.98;;;;;;;2.86;100.00;101521.19;10412386;28;20064;-70
2022/12/06 22:46:25;;;;;;;15.68;9.40;;;;;;;2.82;100.00;101515.19;10411844;28;20103;-71
2022/12/06 22:51:30;;;;;;;17.88;9.68;;;;;;;2.77;100.00;101517.75;10411955;28;20144;-69
2022/12/06 22:56:33;;;;;;;10.25;7.85;;;;;;;2.68;100.00;101505.75;10409872;28;20069;-70
2022/12/06 23:01:36;;;;;;;10.88;6.95;;;;;;;2.63;100.00;101504.03;10412048;28;20087;-70
2022/12/06 23:06:38;;;;;;;13.30;8.60;;;;;;;2.59;100.00;101502.28;10411892;28;20060;-70
2022/12/06 23:11:43;;;;;;;12.40;8.02;;;;;;;2.46;100.00;101504.81;10420093;28;20068;-70
2022/12/06 23:16:45;;;;;;;12.48;7.60;;;;;;;2.37;100.00;101512.53;10419956;28;20126;-70
2022/12/06 23:21:47;;;;;;;13.70;9.47;;;;;;;2.33;100.00;101510.81;10420216;28;20103;-69
2022/12/06 23:26:51;;;;;;;12.73;8.27;;;;;;;2.27;100.00;101512.53;10417337;28;20363;-69
2022/12/06 23:31:53;;;;;;;12.90;7.18;;;;;;;2.24;100.00;101512.50;10419649;28;20072;-69
2022/12/06 23:36:56;;;;;;;15.40;8.45;;;;;;;2.39;100.00;101513.41;10418867;28;20138;-70
2022/12/06 23:41:59;;;;;;;12.00;8.45;;;;;;;2.42;100.00;101511.69;10419520;28;20125;-70
2022/12/06 23:47:00;;;;;;;13.98;8.35;;;;;;;2.44;100.00;101514.28;10418845;28;20067;-70